sensor_id;sensor_type;location;lat;lon;timestamp;temperature;humidity
7684;DHT22;3884;48.616;12.872;2022-11-04T00:01:30;9.70;99.90
7684;DHT22;3884;48.616;12.872;2022-11-04T00:03:57;9.80;99.90
7684;DHT22;3884;48.616;12.872;2022-11-04T00:06:25;9.70;99.90
7684;DHT22;3884;48.616;12.872;2022-11-04T00:08:54;9.70;99.90
7684;DHT22;3884;48.616;12.872;2022-11-04T00:11:22;9.80;99.90
7684;DHT22;3884;48.616;12.872;2022-11-04T00:14:08;9.70;99.90
7684;DHT22;3884;48.616;12.872;2022-11-04T00:16:35;9.80;99.90
7684;DHT22;3884;48.616;12.872;2022-11-04T00:19:20;9.80;99.90
7684;DHT22;3884;48.616;12.872;2022-11-04T00:21:48;9.80;99.90
7684;DHT22;3884;48.616;12.872;2022-11-04T00:24:33;9.70;99.90
7684;DHT22;3884;48.616;12.872;2022-11-04T00:27:19;9.70;99.90
7684;DHT22;3884;48.616;12.872;2022-11-04T00:30:06;9.80;99.90
7684;DHT22;3884;48.616;12.872;2022-11-04T00:32:34;9.80;99.90
7684;DHT22;3884;48.616;12.872;2022-11-04T00:35:19;9.70;99.90
7684;DHT22;3884;48.616;12.872;2022-11-04T00:37:48;9.80;99.90
7684;DHT22;3884;48.616;12.872;2022-11-04T00:40:15;9.80;99.90
7684;DHT22;3884;48.616;12.872;2022-11-04T00:42:43;9.80;99.90
7684;DHT22;3884;48.616;12.872;2022-11-04T00:45:11;9.80;99.90
7684;DHT22;3884;48.616;12.872;2022-11-04T00:47:38;9.90;99.90
7684;DHT22;3884;48.616;12.872;2022-11-04T00:50:06;10.00;99.90
7684;DHT22;3884;48.616;12.872;2022-11-04T00:52:34;10.10;99.90
7684;DHT22;3884;48.616;12.872;2022-11-04T00:55:03;10.10;99.90
7684;DHT22;3884;48.616;12.872;2022-11-04T00:57:30;10.20;99.90
7684;DHT22;3884;48.616;12.872;2022-11-04T00:59:57;10.40;99.90
7684;DHT22;3884;48.616;12.872;2022-11-04T01:02:25;10.70;99.90
7684;DHT22;3884;48.616;12.872;2022-11-04T01:04:52;10.90;99.90
7684;DHT22;3884;48.616;12.872;2022-11-04T01:07:19;11.10;99.90
7684;DHT22;3884;48.616;12.872;2022-11-04T01:09:47;11.30;99.90
7684;DHT22;3884;48.616;12.872;2022-11-04T01:12:16;11.30;99.90
7684;DHT22;3884;48.616;12.872;2022-11-04T01:14:43;11.50;99.90
7684;DHT22;3884;48.616;12.872;2022-11-04T01:17:14;11.60;99.90
7684;DHT22;3884;48.616;12.872;2022-11-04T01:19:42;11.70;99.90
7684;DHT22;3884;48.616;12.872;2022-11-04T01:22:09;11.70;99.90
7684;DHT22;3884;48.616;12.872;2022-11-04T01:24:36;11.70;99.90
7684;DHT22;3884;48.616;12.872;2022-11-04T01:27:03;11.70;99.90
7684;DHT22;3884;48.616;12.872;2022-11-04T01:29:32;11.70;99.90
7684;DHT22;3884;48.616;12.872;2022-11-04T01:31:59;11.60;99.90
7684;DHT22;3884;48.616;12.872;2022-11-04T01:34:26;11.60;99.90
7684;DHT22;3884;48.616;12.872;2022-11-04T01:36:53;11.60;99.90
7684;DHT22;3884;48.616;12.872;2022-11-04T01:39:20;11.50;99.90
7684;DHT22;3884;48.616;12.872;2022-11-04T01:41:47;11.40;99.90
7684;DHT22;3884;48.616;12.872;2022-11-04T01:44:47;11.30;99.90
7684;DHT22;3884;48.616;12.872;2022-11-04T01:47:17;11.30;99.90
7684;DHT22;3884;48.616;12.872;2022-11-04T01:49:49;11.20;99.90
7684;DHT22;3884;48.616;12.872;2022-11-04T01:52:21;11.20;99.90
7684;DHT22;3884;48.616;12.872;2022-11-04T01:54:51;11.20;99.90
7684;DHT22;3884;48.616;12.872;2022-11-04T01:57:24;11.20;99.90
7684;DHT22;3884;48.616;12.872;2022-11-04T01:59:54;11.20;99.90
7684;DHT22;3884;48.616;12.872;2022-11-04T02:02:24;11.10;99.90
7684;DHT22;3884;48.616;12.872;2022-11-04T02:04:51;11.10;99.90
7684;DHT22;3884;48.616;12.872;2022-11-04T02:07:18;11.10;99.90
7684;DHT22;3884;48.616;12.872;2022-11-04T02:09:46;11.10;99.90
7684;DHT22;3884;48.616;12.872;2022-11-04T02:12:13;11.00;99.90
7684;DHT22;3884;48.616;12.872;2022-11-04T02:14:57;11.00;99.90
7684;DHT22;3884;48.616;12.872;2022-11-04T02:17:32;11.00;99.90
7684;DHT22;3884;48.616;12.872;2022-11-04T02:20:26;10.90;99.90
7684;DHT22;3884;48.616;12.872;2022-11-04T02:23:31;11.00;99.90
7684;DHT22;3884;48.616;12.872;2022-11-04T02:26:33;10.90;99.90
7684;DHT22;3884;48.616;12.872;2022-11-04T02:29:17;10.90;99.90
7684;DHT22;3884;48.616;12.872;2022-11-04T02:31:50;10.80;99.90
7684;DHT22;3884;48.616;12.872;2022-11-04T02:34:23;10.80;99.90
7684;DHT22;3884;48.616;12.872;2022-11-04T02:36:57;10.70;99.90
7684;DHT22;3884;48.616;12.872;2022-11-04T02:39:35;10.80;99.90
7684;DHT22;3884;48.616;12.872;2022-11-04T02:42:09;10.70;99.90
7684;DHT22;3884;48.616;12.872;2022-11-04T02:44:43;10.70;99.90
7684;DHT22;3884;48.616;12.872;2022-11-04T02:47:15;10.60;99.90
7684;DHT22;3884;48.616;12.872;2022-11-04T02:49:46;10.60;99.90
7684;DHT22;3884;48.616;12.872;2022-11-04T02:52:20;10.60;99.90
7684;DHT22;3884;48.616;12.872;2022-11-04T02:54:50;10.60;99.90
7684;DHT22;3884;48.616;12.872;2022-11-04T02:57:22;10.60;99.90
7684;DHT22;3884;48.616;12.872;2022-11-04T02:59:54;10.60;99.90
7684;DHT22;3884;48.616;12.872;2022-11-04T03:02:25;10.60;99.90
7684;DHT22;3884;48.616;12.872;2022-11-04T03:04:54;10.50;99.90
7684;DHT22;3884;48.616;12.872;2022-11-04T03:07:26;10.50;99.90
7684;DHT22;3884;48.616;12.872;2022-11-04T03:09:58;10.50;99.90
7684;DHT22;3884;48.616;12.872;2022-11-04T03:12:29;10.50;99.90
7684;DHT22;3884;48.616;12.872;2022-11-04T03:15:01;10.40;99.90
7684;DHT22;3884;48.616;12.872;2022-11-04T03:17:32;10.50;99.90
7684;DHT22;3884;48.616;12.872;2022-11-04T03:20:04;10.40;99.90
7684;DHT22;3884;48.616;12.872;2022-11-04T03:22:35;10.40;99.90
7684;DHT22;3884;48.616;12.872;2022-11-04T03:25:03;10.40;99.90
7684;DHT22;3884;48.616;12.872;2022-11-04T03:27:34;10.40;99.90
7684;DHT22;3884;48.616;12.872;2022-11-04T03:30:11;10.40;99.90
7684;DHT22;3884;48.616;12.872;2022-11-04T03:32:42;10.40;99.90
7684;DHT22;3884;48.616;12.872;2022-11-04T03:35:10;10.40;99.90
7684;DHT22;3884;48.616;12.872;2022-11-04T03:37:38;10.30;99.90
7684;DHT22;3884;48.616;12.872;2022-11-04T03:40:06;10.30;99.90
7684;DHT22;3884;48.616;12.872;2022-11-04T03:42:36;10.30;99.90
7684;DHT22;3884;48.616;12.872;2022-11-04T03:45:05;10.20;99.90
7684;DHT22;3884;48.616;12.872;2022-11-04T03:47:34;10.30;99.90
7684;DHT22;3884;48.616;12.872;2022-11-04T03:50:06;10.20;99.90
7684;DHT22;3884;48.616;12.872;2022-11-04T03:52:35;10.20;99.90
7684;DHT22;3884;48.616;12.872;2022-11-04T03:55:03;10.20;99.90
7684;DHT22;3884;48.616;12.872;2022-11-04T03:57:40;10.20;99.90
7684;DHT22;3884;48.616;12.872;2022-11-04T04:00:11;10.10;99.90
7684;DHT22;3884;48.616;12.872;2022-11-04T04:03:01;10.20;99.90
7684;DHT22;3884;48.616;12.872;2022-11-04T04:05:32;10.20;99.90
7684;DHT22;3884;48.616;12.872;2022-11-04T04:08:12;10.20;99.90
7684;DHT22;3884;48.616;12.872;2022-11-04T04:10:46;10.20;99.90
7684;DHT22;3884;48.616;12.872;2022-11-04T04:13:20;10.20;99.90
7684;DHT22;3884;48.616;12.872;2022-11-04T04:15:53;10.20;99.90
7684;DHT22;3884;48.616;12.872;2022-11-04T04:18:28;10.20;99.90
7684;DHT22;3884;48.616;12.872;2022-11-04T04:20:58;10.10;99.90
7684;DHT22;3884;48.616;12.872;2022-11-04T04:23:30;10.00;99.90
7684;DHT22;3884;48.616;12.872;2022-11-04T04:26:18;10.00;99.90
7684;DHT22;3884;48.616;12.872;2022-11-04T04:29:06;10.00;99.90
7684;DHT22;3884;48.616;12.872;2022-11-04T04:31:35;10.00;99.90
7684;DHT22;3884;48.616;12.872;2022-11-04T04:34:18;9.90;99.90
7684;DHT22;3884;48.616;12.872;2022-11-04T04:36:48;9.90;99.90
7684;DHT22;3884;48.616;12.872;2022-11-04T04:39:18;9.90;99.90
7684;DHT22;3884;48.616;12.872;2022-11-04T04:42:05;9.90;99.90
7684;DHT22;3884;48.616;12.872;2022-11-04T04:44:50;10.00;99.90
7684;DHT22;3884;48.616;12.872;2022-11-04T04:47:30;10.00;99.90
7684;DHT22;3884;48.616;12.872;2022-11-04T04:50:00;10.00;99.90
7684;DHT22;3884;48.616;12.872;2022-11-04T04:52:30;10.00;99.90
7684;DHT22;3884;48.616;12.872;2022-11-04T04:54:57;10.00;99.90
7684;DHT22;3884;48.616;12.872;2022-11-04T04:57:24;10.00;99.90
7684;DHT22;3884;48.616;12.872;2022-11-04T04:59:52;10.00;99.90
7684;DHT22;3884;48.616;12.872;2022-11-04T05:02:19;10.00;99.90
7684;DHT22;3884;48.616;12.872;2022-11-04T05:04:46;10.00;99.90
7684;DHT22;3884;48.616;12.872;2022-11-04T05:07:14;10.00;99.90
7684;DHT22;3884;48.616;12.872;2022-11-04T05:09:41;10.00;99.90
7684;DHT22;3884;48.616;12.872;2022-11-04T05:12:09;10.00;99.90
7684;DHT22;3884;48.616;12.872;2022-11-04T05:14:36;10.00;99.90
7684;DHT22;3884;48.616;12.872;2022-11-04T05:17:04;10.00;99.90
7684;DHT22;3884;48.616;12.872;2022-11-04T05:19:31;10.00;99.90
7684;DHT22;3884;48.616;12.872;2022-11-04T05:21:58;9.90;99.90
7684;DHT22;3884;48.616;12.872;2022-11-04T05:24:27;10.00;99.90
7684;DHT22;3884;48.616;12.872;2022-11-04T05:26:54;9.90;99.90
7684;DHT22;3884;48.616;12.872;2022-11-04T05:29:21;9.90;99.90
7684;DHT22;3884;48.616;12.872;2022-11-04T05:31:48;9.90;99.90
7684;DHT22;3884;48.616;12.872;2022-11-04T05:34:16;9.90;99.90
7684;DHT22;3884;48.616;12.872;2022-11-04T05:36:43;9.90;99.90
7684;DHT22;3884;48.616;12.872;2022-11-04T05:39:12;9.90;99.90
7684;DHT22;3884;48.616;12.872;2022-11-04T05:41:41;9.90;99.90
7684;DHT22;3884;48.616;12.872;2022-11-04T05:44:08;9.80;99.90
7684;DHT22;3884;48.616;12.872;2022-11-04T05:46:36;9.80;99.90
7684;DHT22;3884;48.616;12.872;2022-11-04T05:49:03;9.80;99.90
7684;DHT22;3884;48.616;12.872;2022-11-04T05:51:31;9.80;99.90
7684;DHT22;3884;48.616;12.872;2022-11-04T05:53:59;9.80;99.90
7684;DHT22;3884;48.616;12.872;2022-11-04T05:56:26;9.80;99.90
7684;DHT22;3884;48.616;12.872;2022-11-04T05:58:55;9.80;99.90
7684;DHT22;3884;48.616;12.872;2022-11-04T06:01:27;9.70;99.90
7684;DHT22;3884;48.616;12.872;2022-11-04T06:03:56;9.70;99.90
7684;DHT22;3884;48.616;12.872;2022-11-04T06:06:24;9.70;99.90
7684;DHT22;3884;48.616;12.872;2022-11-04T06:08:52;9.70;99.90
7684;DHT22;3884;48.616;12.872;2022-11-04T06:11:20;9.60;99.90
7684;DHT22;3884;48.616;12.872;2022-11-04T06:13:48;9.70;99.90
7684;DHT22;3884;48.616;12.872;2022-11-04T06:16:16;9.60;99.90
7684;DHT22;3884;48.616;12.872;2022-11-04T06:18:43;9.60;99.90
7684;DHT22;3884;48.616;12.872;2022-11-04T06:21:21;9.50;99.90
7684;DHT22;3884;48.616;12.872;2022-11-04T06:23:50;9.60;99.90
7684;DHT22;3884;48.616;12.872;2022-11-04T06:26:18;9.60;99.90
7684;DHT22;3884;48.616;12.872;2022-11-04T06:28:46;9.50;99.90
7684;DHT22;3884;48.616;12.872;2022-11-04T06:31:16;9.60;99.90
7684;DHT22;3884;48.616;12.872;2022-11-04T06:33:43;9.60;99.90
7684;DHT22;3884;48.616;12.872;2022-11-04T06:36:12;9.50;99.90
7684;DHT22;3884;48.616;12.872;2022-11-04T06:38:40;9.50;99.90
7684;DHT22;3884;48.616;12.872;2022-11-04T06:41:11;9.50;99.90
7684;DHT22;3884;48.616;12.872;2022-11-04T06:43:38;9.40;99.90
7684;DHT22;3884;48.616;12.872;2022-11-04T06:46:05;9.40;99.90
7684;DHT22;3884;48.616;12.872;2022-11-04T06:48:34;9.40;99.90
7684;DHT22;3884;48.616;12.872;2022-11-04T06:51:01;9.40;99.90
7684;DHT22;3884;48.616;12.872;2022-11-04T06:53:28;9.40;99.90
7684;DHT22;3884;48.616;12.872;2022-11-04T06:56:01;9.50;99.90
7684;DHT22;3884;48.616;12.872;2022-11-04T06:58:30;9.40;99.90
7684;DHT22;3884;48.616;12.872;2022-11-04T07:00:58;9.40;99.90
7684;DHT22;3884;48.616;12.872;2022-11-04T07:03:26;9.30;99.90
7684;DHT22;3884;48.616;12.872;2022-11-04T07:05:54;9.30;99.90
7684;DHT22;3884;48.616;12.872;2022-11-04T07:08:21;9.30;99.90
7684;DHT22;3884;48.616;12.872;2022-11-04T07:10:49;9.30;99.90
7684;DHT22;3884;48.616;12.872;2022-11-04T07:13:16;9.30;99.90
7684;DHT22;3884;48.616;12.872;2022-11-04T07:15:43;9.30;99.90
7684;DHT22;3884;48.616;12.872;2022-11-04T07:18:10;9.30;99.90
7684;DHT22;3884;48.616;12.872;2022-11-04T07:20:37;9.30;99.90
7684;DHT22;3884;48.616;12.872;2022-11-04T07:23:06;9.30;99.90
7684;DHT22;3884;48.616;12.872;2022-11-04T07:25:33;9.30;99.90
7684;DHT22;3884;48.616;12.872;2022-11-04T07:28:00;9.30;99.90
7684;DHT22;3884;48.616;12.872;2022-11-04T07:30:27;9.30;99.90
7684;DHT22;3884;48.616;12.872;2022-11-04T07:32:55;9.30;99.90
7684;DHT22;3884;48.616;12.872;2022-11-04T07:35:23;9.30;99.90
7684;DHT22;3884;48.616;12.872;2022-11-04T07:37:50;9.30;99.90
7684;DHT22;3884;48.616;12.872;2022-11-04T07:40:18;9.40;99.90
7684;DHT22;3884;48.616;12.872;2022-11-04T07:42:45;9.40;99.90
7684;DHT22;3884;48.616;12.872;2022-11-04T07:45:16;9.40;99.90
7684;DHT22;3884;48.616;12.872;2022-11-04T07:47:43;9.30;99.90
7684;DHT22;3884;48.616;12.872;2022-11-04T07:50:10;9.30;99.90
7684;DHT22;3884;48.616;12.872;2022-11-04T07:52:38;9.20;99.90
7684;DHT22;3884;48.616;12.872;2022-11-04T07:55:05;9.20;99.90
7684;DHT22;3884;48.616;12.872;2022-11-04T07:57:36;9.10;99.90
7684;DHT22;3884;48.616;12.872;2022-11-04T08:00:03;9.20;99.90
7684;DHT22;3884;48.616;12.872;2022-11-04T08:02:38;9.30;99.90
7684;DHT22;3884;48.616;12.872;2022-11-04T08:05:06;9.20;99.90
7684;DHT22;3884;48.616;12.872;2022-11-04T08:07:33;9.30;99.90
7684;DHT22;3884;48.616;12.872;2022-11-04T08:10:00;9.30;99.90
7684;DHT22;3884;48.616;12.872;2022-11-04T08:12:27;9.40;99.90
7684;DHT22;3884;48.616;12.872;2022-11-04T08:14:58;9.40;99.90
7684;DHT22;3884;48.616;12.872;2022-11-04T08:17:25;9.40;99.90
7684;DHT22;3884;48.616;12.872;2022-11-04T08:19:53;9.30;99.90
7684;DHT22;3884;48.616;12.872;2022-11-04T08:22:20;9.20;99.90
7684;DHT22;3884;48.616;12.872;2022-11-04T08:24:47;9.10;99.90
7684;DHT22;3884;48.616;12.872;2022-11-04T08:27:14;9.00;99.90
7684;DHT22;3884;48.616;12.872;2022-11-04T08:29:41;8.90;99.90
7684;DHT22;3884;48.616;12.872;2022-11-04T08:32:10;8.90;99.90
7684;DHT22;3884;48.616;12.872;2022-11-04T08:34:37;8.90;99.90
7684;DHT22;3884;48.616;12.872;2022-11-04T08:37:04;8.80;99.90
7684;DHT22;3884;48.616;12.872;2022-11-04T08:39:31;8.70;99.90
7684;DHT22;3884;48.616;12.872;2022-11-04T08:41:58;8.60;99.90
7684;DHT22;3884;48.616;12.872;2022-11-04T08:44:25;8.60;99.90
7684;DHT22;3884;48.616;12.872;2022-11-04T08:46:52;8.60;99.90
7684;DHT22;3884;48.616;12.872;2022-11-04T08:49:21;8.60;99.90
7684;DHT22;3884;48.616;12.872;2022-11-04T08:51:48;8.60;99.90
7684;DHT22;3884;48.616;12.872;2022-11-04T08:54:21;8.60;99.90
7684;DHT22;3884;48.616;12.872;2022-11-04T08:56:49;8.70;99.90
7684;DHT22;3884;48.616;12.872;2022-11-04T08:59:16;8.70;99.90
7684;DHT22;3884;48.616;12.872;2022-11-04T09:01:43;8.80;99.90
7684;DHT22;3884;48.616;12.872;2022-11-04T09:04:11;8.80;99.90
7684;DHT22;3884;48.616;12.872;2022-11-04T09:06:42;8.80;99.90
7684;DHT22;3884;48.616;12.872;2022-11-04T09:09:13;8.80;99.90
7684;DHT22;3884;48.616;12.872;2022-11-04T09:11:41;8.90;99.90
7684;DHT22;3884;48.616;12.872;2022-11-04T09:14:12;8.90;99.90
7684;DHT22;3884;48.616;12.872;2022-11-04T09:16:40;8.90;99.90
7684;DHT22;3884;48.616;12.872;2022-11-04T09:19:07;8.90;99.90
7684;DHT22;3884;48.616;12.872;2022-11-04T09:21:35;9.00;99.90
7684;DHT22;3884;48.616;12.872;2022-11-04T09:24:04;9.00;99.90
7684;DHT22;3884;48.616;12.872;2022-11-04T09:26:33;9.00;99.90
7684;DHT22;3884;48.616;12.872;2022-11-04T09:29:00;9.00;99.90
7684;DHT22;3884;48.616;12.872;2022-11-04T09:31:29;9.00;99.90
7684;DHT22;3884;48.616;12.872;2022-11-04T09:33:57;9.10;99.90
7684;DHT22;3884;48.616;12.872;2022-11-04T09:36:24;9.10;99.90
7684;DHT22;3884;48.616;12.872;2022-11-04T09:38:54;9.10;99.90
7684;DHT22;3884;48.616;12.872;2022-11-04T09:41:44;9.10;99.90
7684;DHT22;3884;48.616;12.872;2022-11-04T09:44:22;9.20;99.90
7684;DHT22;3884;48.616;12.872;2022-11-04T09:46:52;9.20;99.90
7684;DHT22;3884;48.616;12.872;2022-11-04T09:49:20;9.20;99.90
7684;DHT22;3884;48.616;12.872;2022-11-04T09:51:47;9.20;99.90
7684;DHT22;3884;48.616;12.872;2022-11-04T09:54:19;9.20;99.90
7684;DHT22;3884;48.616;12.872;2022-11-04T09:56:50;9.30;99.90
7684;DHT22;3884;48.616;12.872;2022-11-04T09:59:25;9.20;99.90
7684;DHT22;3884;48.616;12.872;2022-11-04T10:02:04;9.30;99.90
7684;DHT22;3884;48.616;12.872;2022-11-04T10:04:44;9.40;99.90
7684;DHT22;3884;48.616;12.872;2022-11-04T10:07:28;9.20;99.90
7684;DHT22;3884;48.616;12.872;2022-11-04T10:10:07;9.30;99.90
7684;DHT22;3884;48.616;12.872;2022-11-04T10:12:56;9.20;99.90
7684;DHT22;3884;48.616;12.872;2022-11-04T10:18:34;9.20;99.90
7684;DHT22;3884;48.616;12.872;2022-11-04T10:21:13;9.30;99.90
7684;DHT22;3884;48.616;12.872;2022-11-04T10:23:43;9.30;99.90
7684;DHT22;3884;48.616;12.872;2022-11-04T10:26:14;9.20;99.90
7684;DHT22;3884;48.616;12.872;2022-11-04T10:28:48;9.20;99.90
7684;DHT22;3884;48.616;12.872;2022-11-04T10:31:18;9.30;99.90
7684;DHT22;3884;48.616;12.872;2022-11-04T10:33:49;9.30;99.90
7684;DHT22;3884;48.616;12.872;2022-11-04T10:36:18;9.30;99.90
7684;DHT22;3884;48.616;12.872;2022-11-04T10:38:48;9.30;99.90
7684;DHT22;3884;48.616;12.872;2022-11-04T10:41:28;9.30;99.90
7684;DHT22;3884;48.616;12.872;2022-11-04T10:44:02;9.20;99.90
7684;DHT22;3884;48.616;12.872;2022-11-04T10:46:38;9.20;99.90
7684;DHT22;3884;48.616;12.872;2022-11-04T10:49:23;9.20;99.90
7684;DHT22;3884;48.616;12.872;2022-11-04T10:51:57;9.20;99.90
7684;DHT22;3884;48.616;12.872;2022-11-04T10:54:24;9.20;99.90
7684;DHT22;3884;48.616;12.872;2022-11-04T10:56:54;9.20;99.90
7684;DHT22;3884;48.616;12.872;2022-11-04T10:59:25;9.20;99.90
7684;DHT22;3884;48.616;12.872;2022-11-04T11:01:54;9.20;99.90
7684;DHT22;3884;48.616;12.872;2022-11-04T11:04:27;9.20;99.90
7684;DHT22;3884;48.616;12.872;2022-11-04T11:06:55;9.10;99.90
7684;DHT22;3884;48.616;12.872;2022-11-04T11:09:25;9.10;99.90
7684;DHT22;3884;48.616;12.872;2022-11-04T11:11:57;9.10;99.90
7684;DHT22;3884;48.616;12.872;2022-11-04T11:14:36;9.10;99.90
7684;DHT22;3884;48.616;12.872;2022-11-04T11:17:19;9.10;99.90
7684;DHT22;3884;48.616;12.872;2022-11-04T11:19:49;9.10;99.90
7684;DHT22;3884;48.616;12.872;2022-11-04T11:22:36;9.10;99.90
7684;DHT22;3884;48.616;12.872;2022-11-04T11:25:28;9.10;99.90
7684;DHT22;3884;48.616;12.872;2022-11-04T11:27:58;9.10;99.90
7684;DHT22;3884;48.616;12.872;2022-11-04T11:30:29;9.10;99.90
7684;DHT22;3884;48.616;12.872;2022-11-04T11:33:00;9.00;99.90
7684;DHT22;3884;48.616;12.872;2022-11-04T11:35:34;9.00;99.90
7684;DHT22;3884;48.616;12.872;2022-11-04T11:38:17;9.00;99.90
7684;DHT22;3884;48.616;12.872;2022-11-04T11:40:45;9.00;99.90
7684;DHT22;3884;48.616;12.872;2022-11-04T11:43:22;9.10;99.90
7684;DHT22;3884;48.616;12.872;2022-11-04T11:45:52;9.10;99.90
7684;DHT22;3884;48.616;12.872;2022-11-04T11:48:30;9.00;99.90
7684;DHT22;3884;48.616;12.872;2022-11-04T11:50:58;9.00;99.90
7684;DHT22;3884;48.616;12.872;2022-11-04T11:53:26;9.00;99.90
7684;DHT22;3884;48.616;12.872;2022-11-04T11:56:03;9.00;99.90
7684;DHT22;3884;48.616;12.872;2022-11-04T11:58:38;9.10;99.90
7684;DHT22;3884;48.616;12.872;2022-11-04T12:01:12;9.10;99.90
7684;DHT22;3884;48.616;12.872;2022-11-04T12:03:43;9.20;99.90
7684;DHT22;3884;48.616;12.872;2022-11-04T12:06:23;9.20;99.90
7684;DHT22;3884;48.616;12.872;2022-11-04T12:09:19;9.10;99.90
7684;DHT22;3884;48.616;12.872;2022-11-04T12:12:02;9.20;99.90
7684;DHT22;3884;48.616;12.872;2022-11-04T12:14:40;9.10;99.90
7684;DHT22;3884;48.616;12.872;2022-11-04T12:17:22;9.10;99.90
7684;DHT22;3884;48.616;12.872;2022-11-04T12:20:06;9.10;99.90
7684;DHT22;3884;48.616;12.872;2022-11-04T12:22:40;9.10;99.90
7684;DHT22;3884;48.616;12.872;2022-11-04T12:25:19;9.10;99.90
7684;DHT22;3884;48.616;12.872;2022-11-04T12:27:53;9.10;99.90
7684;DHT22;3884;48.616;12.872;2022-11-04T12:30:23;9.10;99.90
7684;DHT22;3884;48.616;12.872;2022-11-04T12:33:03;9.00;99.90
7684;DHT22;3884;48.616;12.872;2022-11-04T12:35:43;9.10;99.90
7684;DHT22;3884;48.616;12.872;2022-11-04T12:38:29;9.10;99.90
7684;DHT22;3884;48.616;12.872;2022-11-04T12:41:05;9.10;99.90
7684;DHT22;3884;48.616;12.872;2022-11-04T12:43:39;9.10;99.90
7684;DHT22;3884;48.616;12.872;2022-11-04T12:46:18;9.10;99.90
7684;DHT22;3884;48.616;12.872;2022-11-04T12:49:02;9.10;99.90
7684;DHT22;3884;48.616;12.872;2022-11-04T12:51:37;9.10;99.90
7684;DHT22;3884;48.616;12.872;2022-11-04T12:54:20;9.10;99.90
7684;DHT22;3884;48.616;12.872;2022-11-04T12:57:05;9.20;99.90
7684;DHT22;3884;48.616;12.872;2022-11-04T12:59:50;9.10;99.90
7684;DHT22;3884;48.616;12.872;2022-11-04T13:02:22;9.10;99.90
7684;DHT22;3884;48.616;12.872;2022-11-04T13:04:59;9.10;99.90
7684;DHT22;3884;48.616;12.872;2022-11-04T13:07:30;9.10;99.90
7684;DHT22;3884;48.616;12.872;2022-11-04T13:10:05;9.00;99.90
7684;DHT22;3884;48.616;12.872;2022-11-04T13:12:37;9.00;99.90
7684;DHT22;3884;48.616;12.872;2022-11-04T13:15:13;9.00;99.90
7684;DHT22;3884;48.616;12.872;2022-11-04T13:17:42;9.10;99.90
7684;DHT22;3884;48.616;12.872;2022-11-04T13:20:19;9.10;99.90
7684;DHT22;3884;48.616;12.872;2022-11-04T13:22:51;9.00;99.90
7684;DHT22;3884;48.616;12.872;2022-11-04T13:25:23;9.10;99.90
7684;DHT22;3884;48.616;12.872;2022-11-04T13:27:53;9.00;99.90
7684;DHT22;3884;48.616;12.872;2022-11-04T13:30:26;9.00;99.90
7684;DHT22;3884;48.616;12.872;2022-11-04T13:33:00;9.00;99.90
7684;DHT22;3884;48.616;12.872;2022-11-04T13:35:39;9.00;99.90
7684;DHT22;3884;48.616;12.872;2022-11-04T13:38:12;9.00;99.90
7684;DHT22;3884;48.616;12.872;2022-11-04T13:40:45;9.00;99.90
7684;DHT22;3884;48.616;12.872;2022-11-04T13:43:19;8.90;99.90
7684;DHT22;3884;48.616;12.872;2022-11-04T13:46:05;9.00;99.90
7684;DHT22;3884;48.616;12.872;2022-11-04T13:48:51;8.90;99.90
7684;DHT22;3884;48.616;12.872;2022-11-04T13:51:20;8.80;99.90
7684;DHT22;3884;48.616;12.872;2022-11-04T13:53:48;8.80;99.90
7684;DHT22;3884;48.616;12.872;2022-11-04T13:56:31;8.80;99.90
7684;DHT22;3884;48.616;12.872;2022-11-04T13:59:03;8.70;99.90
7684;DHT22;3884;48.616;12.872;2022-11-04T14:01:32;8.70;99.90
7684;DHT22;3884;48.616;12.872;2022-11-04T14:04:04;8.70;99.90
7684;DHT22;3884;48.616;12.872;2022-11-04T14:06:52;8.70;99.90
7684;DHT22;3884;48.616;12.872;2022-11-04T14:09:35;8.70;99.90
7684;DHT22;3884;48.616;12.872;2022-11-04T14:12:32;8.70;99.90
7684;DHT22;3884;48.616;12.872;2022-11-04T14:16:01;8.70;99.90
7684;DHT22;3884;48.616;12.872;2022-11-04T14:18:25;8.70;99.90
7684;DHT22;3884;48.616;12.872;2022-11-04T14:21:02;8.60;99.90
7684;DHT22;3884;48.616;12.872;2022-11-04T14:23:31;8.50;99.90
7684;DHT22;3884;48.616;12.872;2022-11-04T14:26:01;8.50;99.90
7684;DHT22;3884;48.616;12.872;2022-11-04T14:28:29;8.40;99.90
7684;DHT22;3884;48.616;12.872;2022-11-04T14:30:58;8.50;99.90
7684;DHT22;3884;48.616;12.872;2022-11-04T14:33:37;8.50;99.90
7684;DHT22;3884;48.616;12.872;2022-11-04T14:36:33;8.40;99.90
7684;DHT22;3884;48.616;12.872;2022-11-04T14:39:19;8.40;99.90
7684;DHT22;3884;48.616;12.872;2022-11-04T14:41:53;8.40;99.90
7684;DHT22;3884;48.616;12.872;2022-11-04T14:44:30;8.40;99.90
7684;DHT22;3884;48.616;12.872;2022-11-04T14:47:00;8.40;99.90
7684;DHT22;3884;48.616;12.872;2022-11-04T14:49:38;8.40;99.90
7684;DHT22;3884;48.616;12.872;2022-11-04T14:52:18;8.30;99.90
7684;DHT22;3884;48.616;12.872;2022-11-04T14:54:47;8.40;99.90
7684;DHT22;3884;48.616;12.872;2022-11-04T14:57:16;8.40;99.90
7684;DHT22;3884;48.616;12.872;2022-11-04T14:59:44;8.50;99.90
7684;DHT22;3884;48.616;12.872;2022-11-04T15:02:17;8.40;99.90
7684;DHT22;3884;48.616;12.872;2022-11-04T15:04:48;8.40;99.90
7684;DHT22;3884;48.616;12.872;2022-11-04T15:07:27;8.40;99.90
7684;DHT22;3884;48.616;12.872;2022-11-04T15:09:58;8.40;99.90
7684;DHT22;3884;48.616;12.872;2022-11-04T15:12:26;8.40;99.90
7684;DHT22;3884;48.616;12.872;2022-11-04T15:15:25;8.50;99.90
7684;DHT22;3884;48.616;12.872;2022-11-04T15:17:53;8.40;99.90
7684;DHT22;3884;48.616;12.872;2022-11-04T15:20:23;8.40;99.90
7684;DHT22;3884;48.616;12.872;2022-11-04T15:22:51;8.30;99.90
7684;DHT22;3884;48.616;12.872;2022-11-04T15:25:22;8.40;99.90
7684;DHT22;3884;48.616;12.872;2022-11-04T15:27:49;8.40;99.90
7684;DHT22;3884;48.616;12.872;2022-11-04T15:30:19;8.40;99.90
7684;DHT22;3884;48.616;12.872;2022-11-04T15:32:55;8.30;99.90
7684;DHT22;3884;48.616;12.872;2022-11-04T15:35:23;8.30;99.90
7684;DHT22;3884;48.616;12.872;2022-11-04T15:37:51;8.30;99.90
7684;DHT22;3884;48.616;12.872;2022-11-04T15:40:21;8.30;99.90
7684;DHT22;3884;48.616;12.872;2022-11-04T15:42:49;8.30;99.90
7684;DHT22;3884;48.616;12.872;2022-11-04T15:45:30;8.30;99.90
7684;DHT22;3884;48.616;12.872;2022-11-04T15:48:20;8.40;99.90
7684;DHT22;3884;48.616;12.872;2022-11-04T15:50:51;8.30;99.90
7684;DHT22;3884;48.616;12.872;2022-11-04T15:53:19;8.30;99.90
7684;DHT22;3884;48.616;12.872;2022-11-04T15:55:47;8.30;99.90
7684;DHT22;3884;48.616;12.872;2022-11-04T15:58:15;8.20;99.90
7684;DHT22;3884;48.616;12.872;2022-11-04T16:00:50;8.20;99.90
7684;DHT22;3884;48.616;12.872;2022-11-04T16:03:18;8.30;99.90
7684;DHT22;3884;48.616;12.872;2022-11-04T16:06:00;8.20;99.90
7684;DHT22;3884;48.616;12.872;2022-11-04T16:08:29;8.20;99.90
7684;DHT22;3884;48.616;12.872;2022-11-04T16:11:16;8.20;99.90
7684;DHT22;3884;48.616;12.872;2022-11-04T16:13:43;8.20;99.90
7684;DHT22;3884;48.616;12.872;2022-11-04T16:16:19;8.20;99.90
7684;DHT22;3884;48.616;12.872;2022-11-04T16:18:50;8.20;99.90
7684;DHT22;3884;48.616;12.872;2022-11-04T16:21:24;8.20;99.90
7684;DHT22;3884;48.616;12.872;2022-11-04T16:23:55;8.20;99.90
7684;DHT22;3884;48.616;12.872;2022-11-04T16:26:27;8.10;99.90
7684;DHT22;3884;48.616;12.872;2022-11-04T16:28:56;8.10;99.90
7684;DHT22;3884;48.616;12.872;2022-11-04T16:31:26;8.10;99.90
7684;DHT22;3884;48.616;12.872;2022-11-04T16:33:53;8.10;99.90